sensor_id;sensor_type;location;lat;lon;timestamp;pressure;altitude;pressure_sealevel;temperature
78369;BMP280;71113;43.092;-89.268;2023-07-20T00:01:24;98071.31;;;21.33
78369;BMP280;71113;43.092;-89.268;2023-07-20T00:03:50;98071.31;;;21.33
78369;BMP280;71113;43.092;-89.268;2023-07-20T00:06:24;98062.59;;;21.32
78369;BMP280;71113;43.092;-89.268;2023-07-20T00:08:53;98066.31;;;21.31
78369;BMP280;71113;43.092;-89.268;2023-07-20T00:11:20;98067.72;;;21.25
78369;BMP280;71113;43.092;-89.268;2023-07-20T00:13:46;98065.81;;;21.26
78369;BMP280;71113;43.092;-89.268;2023-07-20T00:16:12;98069.91;;;21.23
78369;BMP280;71113;43.092;-89.268;2023-07-20T00:18:37;98067.16;;;21.20
78369;BMP280;71113;43.092;-89.268;2023-07-20T00:21:03;98064.50;;;21.20
78369;BMP280;71113;43.092;-89.268;2023-07-20T00:23:29;98064.78;;;21.15
78369;BMP280;71113;43.092;-89.268;2023-07-20T00:25:55;98065.88;;;21.14
78369;BMP280;71113;43.092;-89.268;2023-07-20T00:28:21;98073.16;;;21.17
78369;BMP280;71113;43.092;-89.268;2023-07-20T00:30:47;98081.03;;;21.13
78369;BMP280;71113;43.092;-89.268;2023-07-20T00:33:16;98072.28;;;21.13
78369;BMP280;71113;43.092;-89.268;2023-07-20T00:35:42;98080.22;;;21.13
78369;BMP280;71113;43.092;-89.268;2023-07-20T00:38:08;98076.72;;;21.08
78369;BMP280;71113;43.092;-89.268;2023-07-20T00:40:37;98077.81;;;21.07
78369;BMP280;71113;43.092;-89.268;2023-07-20T00:43:04;98078.91;;;21.06
78369;BMP280;71113;43.092;-89.268;2023-07-20T00:45:30;98075.84;;;21.04
78369;BMP280;71113;43.092;-89.268;2023-07-20T00:47:57;98084.91;;;21.03
78369;BMP280;71113;43.092;-89.268;2023-07-20T00:50:24;98078.50;;;21.04
78369;BMP280;71113;43.092;-89.268;2023-07-20T00:52:50;98077.97;;;20.99
78369;BMP280;71113;43.092;-89.268;2023-07-20T00:55:16;98069.22;;;20.98
78369;BMP280;71113;43.092;-89.268;2023-07-20T00:57:42;98071.88;;;20.98
78369;BMP280;71113;43.092;-89.268;2023-07-20T01:00:09;98063.50;;;20.96
78369;BMP280;71113;43.092;-89.268;2023-07-20T01:02:35;98062.13;;;21.02
78369;BMP280;71113;43.092;-89.268;2023-07-20T01:05:02;98055.78;;;20.91
78369;BMP280;71113;43.092;-89.268;2023-07-20T01:07:37;98069.41;;;20.90
78369;BMP280;71113;43.092;-89.268;2023-07-20T01:10:11;98065.16;;;20.89
78369;BMP280;71113;43.092;-89.268;2023-07-20T01:12:42;98068.94;;;20.88
78369;BMP280;71113;43.092;-89.268;2023-07-20T01:15:09;98063.88;;;20.83
78369;BMP280;71113;43.092;-89.268;2023-07-20T01:17:36;98067.28;;;20.83
78369;BMP280;71113;43.092;-89.268;2023-07-20T01:20:02;98071.06;;;20.82
78369;BMP280;71113;43.092;-89.268;2023-07-20T01:28:53;98060.34;;;20.79
78369;BMP280;71113;43.092;-89.268;2023-07-20T01:31:27;98058.03;;;20.77
78369;BMP280;71113;43.092;-89.268;2023-07-20T01:33:58;98054.28;;;20.78
78369;BMP280;71113;43.092;-89.268;2023-07-20T01:36:28;98054.50;;;20.73
78369;BMP280;71113;43.092;-89.268;2023-07-20T01:38:54;98054.06;;;20.71
78369;BMP280;71113;43.092;-89.268;2023-07-20T01:41:21;98054.06;;;20.71
78369;BMP280;71113;43.092;-89.268;2023-07-20T01:43:48;98045.69;;;20.69
78369;BMP280;71113;43.092;-89.268;2023-07-20T01:46:14;98032.28;;;20.65
78369;BMP280;71113;43.092;-89.268;2023-07-20T01:48:39;98047.03;;;20.63
78369;BMP280;71113;43.092;-89.268;2023-07-20T01:51:05;98045.91;;;20.64
78369;BMP280;71113;43.092;-89.268;2023-07-20T01:53:31;98042.16;;;20.65
78369;BMP280;71113;43.092;-89.268;2023-07-20T01:55:57;98042.78;;;20.62
78369;BMP280;71113;43.092;-89.268;2023-07-20T01:58:23;98036.63;;;20.58
78369;BMP280;71113;43.092;-89.268;2023-07-20T02:00:50;98045.25;;;20.55
78369;BMP280;71113;43.092;-89.268;2023-07-20T02:03:16;98040.28;;;20.53
78369;BMP280;71113;43.092;-89.268;2023-07-20T02:05:45;98036.84;;;20.53
78369;BMP280;71113;43.092;-89.268;2023-07-20T02:08:11;98033.44;;;20.52
78369;BMP280;71113;43.092;-89.268;2023-07-20T02:10:37;98035.34;;;20.52
78369;BMP280;71113;43.092;-89.268;2023-07-20T02:13:03;98036.75;;;20.49
78369;BMP280;71113;43.092;-89.268;2023-07-20T02:15:29;98040.50;;;20.48
78369;BMP280;71113;43.092;-89.268;2023-07-20T02:17:55;98031.34;;;20.46
78369;BMP280;71113;43.092;-89.268;2023-07-20T02:20:21;98040.41;;;20.44
78369;BMP280;71113;43.092;-89.268;2023-07-20T02:22:47;98054.53;;;20.49
78369;BMP280;71113;43.092;-89.268;2023-07-20T02:25:13;98059.41;;;20.47
78369;BMP280;71113;43.092;-89.268;2023-07-20T02:27:39;98052.88;;;20.44
78369;BMP280;71113;43.092;-89.268;2023-07-20T02:30:05;98056.97;;;20.41
78369;BMP280;71113;43.092;-89.268;2023-07-20T02:32:31;98067.13;;;20.39
78369;BMP280;71113;43.092;-89.268;2023-07-20T02:34:58;98056.88;;;20.38
78369;BMP280;71113;43.092;-89.268;2023-07-20T02:37:24;98067.78;;;20.36
78369;BMP280;71113;43.092;-89.268;2023-07-20T02:39:50;98072.31;;;20.36
78369;BMP280;71113;43.092;-89.268;2023-07-20T02:42:16;98070.34;;;20.33
78369;BMP280;71113;43.092;-89.268;2023-07-20T02:44:42;98064.59;;;20.31
78369;BMP280;71113;43.092;-89.268;2023-07-20T02:47:08;98059.75;;;20.33
78369;BMP280;71113;43.092;-89.268;2023-07-20T02:49:34;98054.44;;;20.33
78369;BMP280;71113;43.092;-89.268;2023-07-20T02:52:00;98053.78;;;20.36
78369;BMP280;71113;43.092;-89.268;2023-07-20T02:54:26;98056.00;;;20.34
78369;BMP280;71113;43.092;-89.268;2023-07-20T02:56:52;98065.81;;;20.33
78369;BMP280;71113;43.092;-89.268;2023-07-20T02:59:18;98061.28;;;20.34
78369;BMP280;71113;43.092;-89.268;2023-07-20T03:01:44;98059.75;;;20.33
78369;BMP280;71113;43.092;-89.268;2023-07-20T03:04:10;98055.09;;;20.30
78369;BMP280;71113;43.092;-89.268;2023-07-20T03:06:36;98053.56;;;20.29
78369;BMP280;71113;43.092;-89.268;2023-07-20T03:09:03;98054.00;;;20.31
78369;BMP280;71113;43.092;-89.268;2023-07-20T03:11:42;98049.03;;;20.29
78369;BMP280;71113;43.092;-89.268;2023-07-20T03:14:08;98052.78;;;20.28
78369;BMP280;71113;43.092;-89.268;2023-07-20T03:16:36;98059.19;;;20.39
78369;BMP280;71113;43.092;-89.268;2023-07-20T03:19:02;98054.66;;;20.40
78369;BMP280;71113;43.092;-89.268;2023-07-20T03:21:29;98051.69;;;20.41
78369;BMP280;71113;43.092;-89.268;2023-07-20T03:23:55;98056.88;;;20.38
78369;BMP280;71113;43.092;-89.268;2023-07-20T03:26:21;98048.47;;;20.36
78369;BMP280;71113;43.092;-89.268;2023-07-20T03:28:48;98051.91;;;20.36
78369;BMP280;71113;43.092;-89.268;2023-07-20T03:31:14;98051.56;;;20.38
78369;BMP280;71113;43.092;-89.268;2023-07-20T03:33:40;98055.75;;;20.39
78369;BMP280;71113;43.092;-89.268;2023-07-20T03:36:06;98052.00;;;20.40
78369;BMP280;71113;43.092;-89.268;2023-07-20T03:38:32;98040.09;;;20.34
78369;BMP280;71113;43.092;-89.268;2023-07-20T03:41:00;98048.38;;;20.32
78369;BMP280;71113;43.092;-89.268;2023-07-20T03:43:27;98043.19;;;20.36
78369;BMP280;71113;43.092;-89.268;2023-07-20T03:45:54;98038.53;;;20.33
78369;BMP280;71113;43.092;-89.268;2023-07-20T03:48:22;98031.38;;;20.33
78369;BMP280;71113;43.092;-89.268;2023-07-20T03:50:50;98031.16;;;20.26
78369;BMP280;71113;43.092;-89.268;2023-07-20T03:53:16;98030.72;;;20.24
78369;BMP280;71113;43.092;-89.268;2023-07-20T03:55:46;98034.16;;;20.25
78369;BMP280;71113;43.092;-89.268;2023-07-20T03:58:13;98031.38;;;20.21
78369;BMP280;71113;43.092;-89.268;2023-07-20T04:00:39;98041.63;;;20.10
78369;BMP280;71113;43.092;-89.268;2023-07-20T04:03:06;98042.19;;;20.16
78369;BMP280;71113;43.092;-89.268;2023-07-20T04:05:32;98039.63;;;20.20
78369;BMP280;71113;43.092;-89.268;2023-07-20T04:07:58;98035.81;;;20.17
78369;BMP280;71113;43.092;-89.268;2023-07-20T04:10:24;98035.81;;;20.17
78369;BMP280;71113;43.092;-89.268;2023-07-20T04:12:50;98037.22;;;20.15
78369;BMP280;71113;43.092;-89.268;2023-07-20T04:15:16;98045.53;;;20.13
78369;BMP280;71113;43.092;-89.268;2023-07-20T04:17:42;98044.28;;;20.10
78369;BMP280;71113;43.092;-89.268;2023-07-20T04:20:08;98043.41;;;20.06
78369;BMP280;71113;43.092;-89.268;2023-07-20T04:22:35;98043.75;;;20.05
78369;BMP280;71113;43.092;-89.268;2023-07-20T04:25:01;98039.97;;;20.06
78369;BMP280;71113;43.092;-89.268;2023-07-20T04:27:26;98042.28;;;20.07
78369;BMP280;71113;43.092;-89.268;2023-07-20T04:29:53;98043.41;;;20.06
78369;BMP280;71113;43.092;-89.268;2023-07-20T04:32:19;98036.13;;;20.03
78369;BMP280;71113;43.092;-89.268;2023-07-20T04:34:44;98041.41;;;20.03
78369;BMP280;71113;43.092;-89.268;2023-07-20T04:37:10;98038.66;;;20.00
78369;BMP280;71113;43.092;-89.268;2023-07-20T04:39:36;98037.00;;;19.95
78369;BMP280;71113;43.092;-89.268;2023-07-20T04:42:02;98038.09;;;19.94
78369;BMP280;71113;43.092;-89.268;2023-07-20T04:44:28;98023.66;;;19.92
78369;BMP280;71113;43.092;-89.268;2023-07-20T04:46:54;98028.81;;;19.88
78369;BMP280;71113;43.092;-89.268;2023-07-20T04:49:20;98031.81;;;19.87
78369;BMP280;71113;43.092;-89.268;2023-07-20T04:51:46;98034.75;;;19.85
78369;BMP280;71113;43.092;-89.268;2023-07-20T04:54:12;98035.88;;;19.84
78369;BMP280;71113;43.092;-89.268;2023-07-20T04:56:39;98028.59;;;19.81
78369;BMP280;71113;43.092;-89.268;2023-07-20T04:59:05;98026.41;;;19.83
78369;BMP280;71113;43.092;-89.268;2023-07-20T05:01:30;98017.03;;;19.86
78369;BMP280;71113;43.092;-89.268;2023-07-20T05:03:56;98019.75;;;19.77
78369;BMP280;71113;43.092;-89.268;2023-07-20T05:06:22;98024.75;;;19.78
78369;BMP280;71113;43.092;-89.268;2023-07-20T05:08:48;98017.13;;;19.77
78369;BMP280;71113;43.092;-89.268;2023-07-20T05:11:14;98021.22;;;19.74
78369;BMP280;71113;43.092;-89.268;2023-07-20T05:13:40;98016.56;;;19.71
78369;BMP280;71113;43.092;-89.268;2023-07-20T05:16:06;98014.56;;;19.68
78369;BMP280;71113;43.092;-89.268;2023-07-20T05:18:32;97995.38;;;19.71
78369;BMP280;71113;43.092;-89.268;2023-07-20T05:20:58;97995.59;;;19.66
78369;BMP280;71113;43.092;-89.268;2023-07-20T05:23:24;98001.56;;;19.63
78369;BMP280;71113;43.092;-89.268;2023-07-20T05:25:58;97988.00;;;19.65
78369;BMP280;71113;43.092;-89.268;2023-07-20T05:28:25;97991.75;;;19.64
78369;BMP280;71113;43.092;-89.268;2023-07-20T05:30:52;97990.19;;;19.63
78369;BMP280;71113;43.092;-89.268;2023-07-20T05:33:19;97999.34;;;19.65
78369;BMP280;71113;43.092;-89.268;2023-07-20T05:35:45;98012.25;;;19.67
78369;BMP280;71113;43.092;-89.268;2023-07-20T05:38:11;98016.78;;;19.66
78369;BMP280;71113;43.092;-89.268;2023-07-20T05:40:44;98015.34;;;19.69
78369;BMP280;71113;43.092;-89.268;2023-07-20T05:43:11;98019.88;;;19.68
78369;BMP280;71113;43.092;-89.268;2023-07-20T05:45:37;98021.09;;;19.71
78369;BMP280;71113;43.092;-89.268;2023-07-20T05:48:03;98013.59;;;19.73
78369;BMP280;71113;43.092;-89.268;2023-07-20T05:50:29;98027.16;;;19.71
78369;BMP280;71113;43.092;-89.268;2023-07-20T05:52:55;98026.03;;;19.72
78369;BMP280;71113;43.092;-89.268;2023-07-20T05:55:21;98024.94;;;19.73
78369;BMP280;71113;43.092;-89.268;2023-07-20T05:57:47;98023.06;;;19.74
78369;BMP280;71113;43.092;-89.268;2023-07-20T06:00:14;98026.50;;;19.74
78369;BMP280;71113;43.092;-89.268;2023-07-20T06:02:40;98023.72;;;19.71
78369;BMP280;71113;43.092;-89.268;2023-07-20T06:05:07;98019.31;;;19.75
78369;BMP280;71113;43.092;-89.268;2023-07-20T06:07:38;98005.75;;;19.76
78369;BMP280;71113;43.092;-89.268;2023-07-20T06:10:05;98002.81;;;19.78
78369;BMP280;71113;43.092;-89.268;2023-07-20T06:12:32;97994.88;;;19.78
78369;BMP280;71113;43.092;-89.268;2023-07-20T06:15:03;97999.06;;;19.79
78369;BMP280;71113;43.092;-89.268;2023-07-20T06:17:29;98005.44;;;19.78
78369;BMP280;71113;43.092;-89.268;2023-07-20T06:19:55;97996.72;;;19.77
78369;BMP280;71113;43.092;-89.268;2023-07-20T06:22:21;97988.47;;;19.79
78369;BMP280;71113;43.092;-89.268;2023-07-20T06:24:47;97990.19;;;19.75
78369;BMP280;71113;43.092;-89.268;2023-07-20T06:27:12;97997.16;;;19.79
78369;BMP280;71113;43.092;-89.268;2023-07-20T06:29:38;97990.75;;;19.80
78369;BMP280;71113;43.092;-89.268;2023-07-20T06:32:05;97995.63;;;19.78
78369;BMP280;71113;43.092;-89.268;2023-07-20T06:34:32;98007.41;;;19.81
78369;BMP280;71113;43.092;-89.268;2023-07-20T06:37:03;98006.75;;;19.84
78369;BMP280;71113;43.092;-89.268;2023-07-20T06:39:29;97992.00;;;19.83
78369;BMP280;71113;43.092;-89.268;2023-07-20T06:41:55;98000.34;;;19.85
78369;BMP280;71113;43.092;-89.268;2023-07-20T06:44:21;98004.09;;;19.84
78369;BMP280;71113;43.092;-89.268;2023-07-20T06:46:48;98006.88;;;19.88
78369;BMP280;71113;43.092;-89.268;2023-07-20T06:49:24;98006.88;;;19.88
78369;BMP280;71113;43.092;-89.268;2023-07-20T06:51:51;97998.81;;;19.84
78369;BMP280;71113;43.092;-89.268;2023-07-20T06:54:17;98016.34;;;19.89
78369;BMP280;71113;43.092;-89.268;2023-07-20T06:56:43;98009.75;;;19.83
78369;BMP280;71113;43.092;-89.268;2023-07-20T06:59:09;98009.09;;;19.86
78369;BMP280;71113;43.092;-89.268;2023-07-20T07:01:35;98010.63;;;19.87
78369;BMP280;71113;43.092;-89.268;2023-07-20T07:04:00;98015.28;;;19.90
78369;BMP280;71113;43.092;-89.268;2023-07-20T07:06:26;98016.81;;;19.91
78369;BMP280;71113;43.092;-89.268;2023-07-20T07:08:53;98013.06;;;19.92
78369;BMP280;71113;43.092;-89.268;2023-07-20T07:11:20;98013.81;;;19.92
78369;BMP280;71113;43.092;-89.268;2023-07-20T07:13:46;98017.59;;;19.91
78369;BMP280;71113;43.092;-89.268;2023-07-20T07:16:15;98016.44;;;19.92
78369;BMP280;71113;43.092;-89.268;2023-07-20T07:18:47;98015.06;;;19.95
78369;BMP280;71113;43.092;-89.268;2023-07-20T07:21:13;98015.47;;;19.97
78369;BMP280;71113;43.092;-89.268;2023-07-20T07:23:39;98021.88;;;19.96
78369;BMP280;71113;43.092;-89.268;2023-07-20T07:26:05;98015.94;;;19.87
78369;BMP280;71113;43.092;-89.268;2023-07-20T07:28:31;98019.69;;;19.86
78369;BMP280;71113;43.092;-89.268;2023-07-20T07:31:00;98013.69;;;19.89
78369;BMP280;71113;43.092;-89.268;2023-07-20T07:33:26;98005.56;;;19.94
78369;BMP280;71113;43.092;-89.268;2023-07-20T07:35:52;98005.56;;;19.94
78369;BMP280;71113;43.092;-89.268;2023-07-20T07:38:19;98003.34;;;19.96
78369;BMP280;71113;43.092;-89.268;2023-07-20T07:40:45;98005.66;;;19.97
78369;BMP280;71113;43.092;-89.268;2023-07-20T07:43:11;98010.63;;;19.99
78369;BMP280;71113;43.092;-89.268;2023-07-20T07:45:38;98009.84;;;19.98
78369;BMP280;71113;43.092;-89.268;2023-07-20T07:48:05;98004.56;;;19.98
78369;BMP280;71113;43.092;-89.268;2023-07-20T07:50:32;98003.47;;;19.99
78369;BMP280;71113;43.092;-89.268;2023-07-20T07:52:58;97990.66;;;20.01
78369;BMP280;71113;43.092;-89.268;2023-07-20T07:55:24;97987.03;;;19.94
78369;BMP280;71113;43.092;-89.268;2023-07-20T07:57:52;97977.41;;;19.89
78369;BMP280;71113;43.092;-89.268;2023-07-20T08:00:18;97976.09;;;19.95
78369;BMP280;71113;43.092;-89.268;2023-07-20T08:02:45;97964.53;;;20.00
78369;BMP280;71113;43.092;-89.268;2023-07-20T08:05:12;97964.19;;;20.01
78369;BMP280;71113;43.092;-89.268;2023-07-20T08:07:38;97958.13;;;20.01
78369;BMP280;71113;43.092;-89.268;2023-07-20T08:10:05;97963.84;;;20.03
78369;BMP280;71113;43.092;-89.268;2023-07-20T08:12:31;97965.84;;;20.06
78369;BMP280;71113;43.092;-89.268;2023-07-20T08:14:57;97956.38;;;20.05
78369;BMP280;71113;43.092;-89.268;2023-07-20T08:17:23;97948.84;;;20.07
78369;BMP280;71113;43.092;-89.268;2023-07-20T08:19:49;97935.19;;;20.05
78369;BMP280;71113;43.092;-89.268;2023-07-20T08:22:15;97939.03;;;20.07
78369;BMP280;71113;43.092;-89.268;2023-07-20T08:24:42;97935.19;;;20.05
78369;BMP280;71113;43.092;-89.268;2023-07-20T08:27:09;97926.34;;;20.01
78369;BMP280;71113;43.092;-89.268;2023-07-20T08:29:35;97921.81;;;20.01
78369;BMP280;71113;43.092;-89.268;2023-07-20T08:32:02;97912.44;;;20.04
78369;BMP280;71113;43.092;-89.268;2023-07-20T08:34:29;97911.44;;;20.08
78369;BMP280;71113;43.092;-89.268;2023-07-20T08:36:56;97914.09;;;20.08
78369;BMP280;71113;43.092;-89.268;2023-07-20T08:39:23;97906.94;;;20.09
78369;BMP280;71113;43.092;-89.268;2023-07-20T08:41:50;97899.00;;;20.09
78369;BMP280;71113;43.092;-89.268;2023-07-20T08:44:17;97889.56;;;20.11
78369;BMP280;71113;43.092;-89.268;2023-07-20T08:46:44;97873.69;;;20.11
78369;BMP280;71113;43.092;-89.268;2023-07-20T08:49:11;97871.81;;;20.12
78369;BMP280;71113;43.092;-89.268;2023-07-20T08:51:37;97870.72;;;20.13
78369;BMP280;71113;43.092;-89.268;2023-07-20T08:54:04;97868.41;;;20.11
78369;BMP280;71113;43.092;-89.268;2023-07-20T08:56:33;97870.50;;;20.06
78369;BMP280;71113;43.092;-89.268;2023-07-20T08:59:01;97872.06;;;20.07
78369;BMP280;71113;43.092;-89.268;2023-07-20T09:01:28;97866.84;;;20.10
78369;BMP280;71113;43.092;-89.268;2023-07-20T09:03:55;97866.50;;;20.12
78369;BMP280;71113;43.092;-89.268;2023-07-20T09:06:22;97865.44;;;20.13
78369;BMP280;71113;43.092;-89.268;2023-07-20T09:08:48;97869.16;;;20.12
78369;BMP280;71113;43.092;-89.268;2023-07-20T09:11:14;97860.91;;;20.14
78369;BMP280;71113;43.092;-89.268;2023-07-20T09:13:40;97856.34;;;20.14
78369;BMP280;71113;43.092;-89.268;2023-07-20T09:16:06;97851.06;;;20.14
78369;BMP280;71113;43.092;-89.268;2023-07-20T09:18:32;97851.50;;;20.16
78369;BMP280;71113;43.092;-89.268;2023-07-20T09:21:03;97842.00;;;20.15
78369;BMP280;71113;43.092;-89.268;2023-07-20T09:23:37;97833.75;;;20.17
78369;BMP280;71113;43.092;-89.268;2023-07-20T09:26:14;97836.63;;;20.11
78369;BMP280;71113;43.092;-89.268;2023-07-20T09:28:51;97844.25;;;20.13
78369;BMP280;71113;43.092;-89.268;2023-07-20T09:31:19;97838.25;;;20.16
78369;BMP280;71113;43.092;-89.268;2023-07-20T09:33:46;97839.06;;;20.17
78369;BMP280;71113;43.092;-89.268;2023-07-20T09:36:13;97836.03;;;20.18
78369;BMP280;71113;43.092;-89.268;2023-07-20T09:38:41;97833.06;;;20.20
78369;BMP280;71113;43.092;-89.268;2023-07-20T09:41:08;97828.53;;;20.20
78369;BMP280;71113;43.092;-89.268;2023-07-20T09:43:36;97834.94;;;20.19
78369;BMP280;71113;43.092;-89.268;2023-07-20T09:46:02;97837.59;;;20.19
78369;BMP280;71113;43.092;-89.268;2023-07-20T09:48:29;97835.41;;;20.21
78369;BMP280;71113;43.092;-89.268;2023-07-20T09:50:56;97841.09;;;20.23
78369;BMP280;71113;43.092;-89.268;2023-07-20T09:53:24;97846.00;;;20.21
78369;BMP280;71113;43.092;-89.268;2023-07-20T09:55:52;97845.88;;;20.18
78369;BMP280;71113;43.092;-89.268;2023-07-20T09:58:18;97835.31;;;20.18
78369;BMP280;71113;43.092;-89.268;2023-07-20T10:00:45;97831.50;;;20.19
78369;BMP280;71113;43.092;-89.268;2023-07-20T10:03:21;97838.03;;;20.21
78369;BMP280;71113;43.092;-89.268;2023-07-20T10:06:08;97852.81;;;20.22
78369;BMP280;71113;43.092;-89.268;2023-07-20T10:08:38;97849.03;;;20.23
78369;BMP280;71113;43.092;-89.268;2023-07-20T10:11:08;97851.28;;;20.21
78369;BMP280;71113;43.092;-89.268;2023-07-20T10:13:38;97849.03;;;20.23
78369;BMP280;71113;43.092;-89.268;2023-07-20T10:16:11;97844.50;;;20.24
78369;BMP280;71113;43.092;-89.268;2023-07-20T10:18:50;97850.19;;;20.22
78369;BMP280;71113;43.092;-89.268;2023-07-20T10:21:21;97849.81;;;20.24
78369;BMP280;71113;43.092;-89.268;2023-07-20T10:23:50;97853.25;;;20.24
78369;BMP280;71113;43.092;-89.268;2023-07-20T10:26:16;97849.81;;;20.24
78369;BMP280;71113;43.092;-89.268;2023-07-20T10:28:42;97855.09;;;20.24
78369;BMP280;71113;43.092;-89.268;2023-07-20T10:31:09;97855.72;;;20.17
78369;BMP280;71113;43.092;-89.268;2023-07-20T10:33:37;97861.78;;;20.18
78369;BMP280;71113;43.092;-89.268;2023-07-20T10:36:04;97852.59;;;20.15
78369;BMP280;71113;43.092;-89.268;2023-07-20T10:41:33;97842.78;;;20.16
78369;BMP280;71113;43.092;-89.268;2023-07-20T10:44:03;97845.88;;;20.18
78369;BMP280;71113;43.092;-89.268;2023-07-20T10:49:06;97851.72;;;20.11
78369;BMP280;71113;43.092;-89.268;2023-07-20T10:51:49;97843.56;;;20.16
78369;BMP280;71113;43.092;-89.268;2023-07-20T10:56:47;97844.16;;;19.97
78369;BMP280;71113;43.092;-89.268;2023-07-20T11:01:57;97839.34;;;19.87
78369;BMP280;71113;43.092;-89.268;2023-07-20T11:04:45;97834.28;;;19.82
78369;BMP280;71113;43.092;-89.268;2023-07-20T11:07:36;97832.72;;;19.81
78369;BMP280;71113;43.092;-89.268;2023-07-20T11:10:14;97822.03;;;19.77
78369;BMP280;71113;43.092;-89.268;2023-07-20T11:18:26;97815.16;;;20.01
78369;BMP280;71113;43.092;-89.268;2023-07-20T11:20:53;97815.91;;;20.01
78369;BMP280;71113;43.092;-89.268;2023-07-20T11:23:22;97819.09;;;20.07
78369;BMP280;71113;43.092;-89.268;2023-07-20T11:25:49;97822.28;;;20.13
78369;BMP280;71113;43.092;-89.268;2023-07-20T11:28:15;97826.59;;;20.17
78369;BMP280;71113;43.092;-89.268;2023-07-20T11:30:41;97829.63;;;20.19
78369;BMP280;71113;43.092;-89.268;2023-07-20T11:33:10;97830.09;;;20.21
78369;BMP280;71113;43.092;-89.268;2023-07-20T11:35:46;97829.00;;;20.22
78369;BMP280;71113;43.092;-89.268;2023-07-20T11:38:13;97826.34;;;20.22
78369;BMP280;71113;43.092;-89.268;2023-07-20T11:40:44;97833.91;;;20.24
78369;BMP280;71113;43.092;-89.268;2023-07-20T11:43:11;97830.97;;;20.25
78369;BMP280;71113;43.092;-89.268;2023-07-20T11:45:38;97831.72;;;20.26
78369;BMP280;71113;43.092;-89.268;2023-07-20T11:48:05;97823.41;;;20.27
78369;BMP280;71113;43.092;-89.268;2023-07-20T11:50:31;97818.59;;;20.29
78369;BMP280;71113;43.092;-89.268;2023-07-20T11:52:57;97833.38;;;20.30
78369;BMP280;71113;43.092;-89.268;2023-07-20T11:55:24;97829.72;;;20.23
78369;BMP280;71113;43.092;-89.268;2023-07-20T11:58:03;97825.97;;;20.24
78369;BMP280;71113;43.092;-89.268;2023-07-20T12:00:29;97825.66;;;20.25
78369;BMP280;71113;43.092;-89.268;2023-07-20T12:02:56;97825.75;;;20.29
78369;BMP280;71113;43.092;-89.268;2023-07-20T12:05:25;97817.13;;;20.32
78369;BMP280;71113;43.092;-89.268;2023-07-20T12:07:52;97822.09;;;20.33
78369;BMP280;71113;43.092;-89.268;2023-07-20T12:10:24;97819.09;;;20.35
78369;BMP280;71113;43.092;-89.268;2023-07-20T12:12:51;97821.41;;;20.36
78369;BMP280;71113;43.092;-89.268;2023-07-20T12:15:23;97821.41;;;20.36
78369;BMP280;71113;43.092;-89.268;2023-07-20T12:17:51;97816.56;;;20.38
78369;BMP280;71113;43.092;-89.268;2023-07-20T12:20:36;97820.75;;;20.39
78369;BMP280;71113;43.092;-89.268;2023-07-20T12:23:05;97824.94;;;20.40
78369;BMP280;71113;43.092;-89.268;2023-07-20T12:25:41;97815.34;;;20.36
78369;BMP280;71113;43.092;-89.268;2023-07-20T12:28:17;97817.91;;;20.32
78369;BMP280;71113;43.092;-89.268;2023-07-20T12:30:45;97818.00;;;20.36
78369;BMP280;71113;43.092;-89.268;2023-07-20T12:33:12;97821.16;;;20.41
78369;BMP280;71113;43.092;-89.268;2023-07-20T12:35:41;97818.97;;;20.43
78369;BMP280;71113;43.092;-89.268;2023-07-20T12:38:08;97815.19;;;20.44
78369;BMP280;71113;43.092;-89.268;2023-07-20T12:40:34;97816.38;;;20.47
78369;BMP280;71113;43.092;-89.268;2023-07-20T12:43:01;97824.44;;;20.51
78369;BMP280;71113;43.092;-89.268;2023-07-20T12:45:27;97816.13;;;20.52
78369;BMP280;71113;43.092;-89.268;2023-07-20T12:47:53;97807.84;;;20.54
78369;BMP280;71113;43.092;-89.268;2023-07-20T12:50:19;97809.16;;;20.60
78369;BMP280;71113;43.092;-89.268;2023-07-20T12:52:45;97802.06;;;20.64
78369;BMP280;71113;43.092;-89.268;2023-07-20T12:55:11;97805.38;;;20.61
78369;BMP280;71113;43.092;-89.268;2023-07-20T12:57:37;97801.44;;;20.55
78369;BMP280;71113;43.092;-89.268;2023-07-20T13:00:05;97795.22;;;20.63
78369;BMP280;71113;43.092;-89.268;2023-07-20T13:02:34;97803.78;;;20.72
78369;BMP280;71113;43.092;-89.268;2023-07-20T13:05:00;97808.16;;;20.80
78369;BMP280;71113;43.092;-89.268;2023-07-20T13:07:31;97813.19;;;20.85
78369;BMP280;71113;43.092;-89.268;2023-07-20T13:09:58;97812.94;;;20.90
78369;BMP280;71113;43.092;-89.268;2023-07-20T13:12:27;97817.22;;;20.95
78369;BMP280;71113;43.092;-89.268;2023-07-20T13:14:53;97804.72;;;20.95
78369;BMP280;71113;43.092;-89.268;2023-07-20T13:17:19;97806.03;;;21.01
78369;BMP280;71113;43.092;-89.268;2023-07-20T13:19:45;97799.59;;;21.02
78369;BMP280;71113;43.092;-89.268;2023-07-20T13:22:11;97802.66;;;21.04
78369;BMP280;71113;43.092;-89.268;2023-07-20T13:24:39;97798.47;;;21.03
78369;BMP280;71113;43.092;-89.268;2023-07-20T13:27:05;97793.84;;;21.00
78369;BMP280;71113;43.092;-89.268;2023-07-20T13:29:31;97798.16;;;21.05
78369;BMP280;71113;43.092;-89.268;2023-07-20T13:31:57;97798.81;;;21.18
78369;BMP280;71113;43.092;-89.268;2023-07-20T13:34:23;97789.38;;;21.20
78369;BMP280;71113;43.092;-89.268;2023-07-20T13:36:49;97794.09;;;21.27
78369;BMP280;71113;43.092;-89.268;2023-07-20T13:39:15;97808.63;;;21.33
78369;BMP280;71113;43.092;-89.268;2023-07-20T13:41:41;97794.25;;;21.34
78369;BMP280;71113;43.092;-89.268;2023-07-20T13:44:07;97792.44;;;21.38
78369;BMP280;71113;43.092;-89.268;2023-07-20T13:46:33;97792.59;;;21.45
78369;BMP280;71113;43.092;-89.268;2023-07-20T13:49:00;97795.31;;;21.49
78369;BMP280;71113;43.092;-89.268;2023-07-20T13:51:25;97785.94;;;21.51
78369;BMP280;71113;43.092;-89.268;2023-07-20T13:54:05;97784.13;;;21.55
78369;BMP280;71113;43.092;-89.268;2023-07-20T13:56:31;97790.38;;;21.47
78369;BMP280;71113;43.092;-89.268;2023-07-20T13:58:57;97788.47;;;21.48
78369;BMP280;71113;43.092;-89.268;2023-07-20T14:01:23;97778.81;;;21.55
78369;BMP280;71113;43.092;-89.268;2023-07-20T14:03:52;97776.69;;;21.64
78369;BMP280;71113;43.092;-89.268;2023-07-20T14:06:18;97783.97;;;21.67
78369;BMP280;71113;43.092;-89.268;2023-07-20T14:08:44;97782.56;;;21.74